Walkerton, Canada
Current Conditions -  °F | °C
As of 12:00 AM on Thursday 23 Oct 2014 (Local Time) from CYVV Reporting Station
Clear Clear  
Wind Chill: 32°   Ceiling: Unl
Heat Index: 32°   Visibility: 15mi
Dew Point: 32°   Wind: 3mph
Humidity: 100%   Direction: 130°SE
Pressure: 30.26"   Gusts: NA
Location:  44.13°N, 81.15°W
Report Text: CYVV 230400Z 13003KT 15SM SKC 00/M00 A3026 RMK SLP256
Loading
Personal Weather Stations






























Interactive Weather Map
Tropical Storm Tracking
New forecast layout! Learn more

10-Day Weather Forecast

Advertisements
Track Severe Weather on mobile